Latest Weather Observations for Adelaide Airport

IDS60801

Issued at 5:01 am CDT Monday 20 February 2017 (issued every 30 minutes, with the page automatically refreshed every 10 minutes)

About weather observations | Map of weather stations | Latest weather observations for SA | Other Formats
Station Details ID: 023034 Name: ADELAIDE AIRPORT Lat: -34.95 Lon: 138.52 Height: 2.0 m
Data from the previous 72 hours. | See also: Recent months at Adelaide Airport
Date/Time
CDT
Temp
°C
App
Temp
°C
Dew
Point
°C
Rel
Hum
%
Delta-T
°C
Wind Press
QNH
hPa
Press
MSL
hPa
Rain since
9am
mm
Dir  Spd
km/h
Gust
km/h
Spd
kts
Gust
kts
20/04:30am 12.9 11.7 10.4 85 1.3 ESE 7 7 4 4 1016.5 1016.5 0.8
20/04:00am 12.8 10.8 10.1 84 1.4 SE 11 13 6 7 1016.4 1016.4 0.8
20/03:30am 13.4 11.1 10.3 81 1.6 SE 13 15 7 8 1016.5 1016.5 0.8
20/03:00am 13.4 11.6 10.9 85 1.3 SE 11 13 6 7 1016.6 1016.6 0.8
20/02:30am 14.3 13.0 11.3 82 1.6 SE 9 11 5 6 1016.7 1016.7 0.8
20/02:00am 14.3 12.6 11.1 81 1.7 SE 11 15 6 8 1016.7 1016.7 0.8
20/01:30am 14.4 12.4 11.6 83 1.5 SSE 13 17 7 9 1016.9 1016.9 0.8
20/01:00am 14.3 13.1 11.5 83 1.5 SE 9 13 5 7 1016.9 1016.9 0.8
20/12:30am 14.1 12.4 11.3 83 1.5 SE 11 13 6 7 1017.0 1017.0 0.8
20/12:00am 14.0 12.2 11.0 82 1.6 SSE 11 15 6 8 1017.1 1017.1 0.8
 
Date/Time
CDT
Temp
°C
App
Temp
°C
Dew
Point
°C
Rel
Hum
%
Delta-T
°C
Wind Press
QNH
hPa
Press
MSL
hPa
Rain since
9am
mm
Dir  Spd
km/h
Gust
km/h
Spd
kts
Gust
kts
19/11:30pm 14.6 12.6 11.6 82 1.6 SSE 13 17 7 9 1017.2 1017.2 0.6
19/11:00pm 14.6 11.5 11.6 82 1.6 S 19 26 10 14 1017.3 1017.3 0.6
19/10:30pm 16.8 13.1 10.2 65 3.5 S 20 32 11 17 1017.2 1017.2 0.0
19/10:00pm 16.3 14.1 9.3 63 3.6 S 11 17 6 9 1017.1 1017.1 0.0
19/09:30pm 15.8 12.4 9.2 65 3.4 S 17 22 9 12 1017.0 1017.0 0.0
19/09:00pm 15.7 12.8 9.5 66 3.2 S 15 19 8 10 1016.7 1016.7 0.0
19/08:30pm 16.0 11.6 10.3 69 3.0 S 24 35 13 19 1016.6 1016.6 0.0
19/08:00pm 16.7 11.7 11.1 69 3.0 SSW 28 41 15 22 1016.3 1016.3 0.0
19/07:30pm 17.5 11.6 9.0 57 4.4 SSW 30 41 16 22 1016.1 1016.1 0.0
19/07:00pm 18.2 13.0 10.3 60 4.2 SSW 28 39 15 21 1015.8 1015.8 0.0
19/06:30pm 18.5 12.6 8.9 53 5.0 SSW 30 39 16 21 1015.7 1015.7 0.0
19/06:00pm 18.6 12.9 9.9 57 4.6 SSW 30 41 16 22 1015.8 1015.8 0.0
19/05:30pm 18.6 13.1 9.3 54 4.9 SW 28 35 15 19 1015.9 1015.9 0.0
19/05:00pm 18.9 12.9 10.1 56 4.7 SW 32 41 17 22 1016.0 1016.0 0.0
19/04:30pm 19.6 15.5 10.1 54 5.1 SSW 22 32 12 17 1016.0 1016.0 0.0
19/04:00pm 18.0 11.8 9.9 59 4.3 SW 33 43 18 23 1016.2 1016.2 0.0
19/03:30pm 18.2 13.5 10.6 61 4.1 SW 26 35 14 19 1016.3 1016.3 0.0
19/03:00pm 19.7 15.8 12.2 62 4.2 SW 24 33 13 18 1016.5 1016.5 0.0
19/02:30pm 18.3 13.4 10.0 58 4.4 SW 26 33 14 18 1016.6 1016.6 0.0
19/02:00pm 18.6 13.8 11.7 64 3.8 SW 28 39 15 21 1016.9 1016.9 0.0
19/01:30pm 19.2 12.9 9.8 54 5.0 SW 33 41 18 22 1017.1 1017.1 0.0
19/01:00pm 17.7 11.2 10.4 62 3.9 SW 35 46 19 25 1017.1 1017.1 0.0
19/12:30pm 18.4 13.4 9.7 57 4.6 SW 26 33 14 18 1017.2 1017.2 0.0
19/12:00pm 18.0 12.2 9.4 57 4.5 SW 30 39 16 21 1017.4 1017.4 0.0
19/11:30am 18.0 11.7 7.5 50 5.3 SW 30 37 16 20 1017.4 1017.4 0.0
19/11:00am 17.4 12.5 8.6 56 4.5 SW 24 37 13 20 1017.4 1017.4 0.0
19/10:30am 16.3 12.8 10.9 70 2.9 S 20 28 11 15 1017.6 1017.6 0.0
19/10:00am 15.8 12.5 10.9 72 2.6 S 19 28 10 15 1017.5 1017.5 0.0
19/09:30am 16.8 14.7 9.9 64 3.6 SSE 11 20 6 11 1017.2 1017.2 0.0
19/09:00am 15.2 13.6 11.7 79 1.9 ESE 11 15 6 8 1017.2 1017.2 4.8
19/08:30am 14.3 13.9 11.1 81 1.7 ENE 4 11 2 6 1017.0 1017.0 4.8
19/08:00am 13.9 12.3 11.5 85 1.3 SE 11 15 6 8 1016.8 1016.8 4.8
19/07:30am 15.4 13.9 10.5 72 2.6 SSE 9 20 5 11 1016.7 1016.7 4.8
19/07:00am 13.1 12.2 11.4 89 0.9 SE 7 13 4 7 1016.6 1016.6 4.8
19/06:30am 13.0 10.9 11.1 88 1.0 SSE 13 17 7 9 1016.4 1016.4 4.8
19/06:00am 13.1 11.1 11.4 89 0.9 SSE 13 15 7 8 1016.2 1016.2 4.4
19/05:30am 12.8 12.9 11.5 92 0.7 SE 2 9 1 5 1016.2 1016.2 4.2
19/05:00am 13.0 10.9 11.3 89 0.9 SE 13 17 7 9 1016.2 1016.2 3.4
19/04:36am 13.3 11.5 10.8 85 1.3 SE 11 24 6 13 1016.2 1016.2 3.2
19/04:30am 13.4 12.2 11.7 89 0.9 E 9 13 5 7 1016.4 1016.4 3.0
19/04:00am 13.3 11.6 11.2 87 1.1 SE 11 13 6 7 1016.3 1016.3 2.8
19/03:30am 13.2 11.6 11.5 89 0.9 SE 11 15 6 8 1016.4 1016.4 2.8
19/03:16am 13.6 11.4 10.7 82 1.5 SSE 13 17 7 9 1016.4 1016.4 2.8
19/03:00am 13.1 9.9 11.2 88 1.0 SSE 19 28 10 15 1016.7 1016.7 2.8
19/02:30am 15.0 11.9 8.7 66 3.2 SSW 15 19 8 10 1016.6 1016.6 2.2
19/02:00am 14.0 12.0 11.4 84 1.4 SSW 13 22 7 12 1017.0 1017.0 2.2
19/01:30am 14.5 11.9 7.8 64 3.3 SSE 11 17 6 9 1017.3 1017.3 0.6
19/01:00am 13.9 10.9 9.4 74 2.3 S 15 20 8 11 1017.5 1017.5 0.6
19/12:30am 14.7 11.9 8.5 66 3.1 SSE 13 17 7 9 1017.5 1017.5 0.4
19/12:00am 14.8 11.8 7.5 61 3.6 SSE 13 17 7 9 1017.4 1017.4 0.4
 
Date/Time
CDT
Temp
°C
App
Temp
°C
Dew
Point
°C
Rel
Hum
%
Delta-T
°C
Wind Press
QNH
hPa
Press
MSL
hPa
Rain since
9am
mm
Dir  Spd
km/h
Gust
km/h
Spd
kts
Gust
kts
18/11:30pm 14.7 10.4 7.9 63 3.4 SSE 20 30 11 16 1017.5 1017.5 0.4
18/11:05pm 15.5 11.9 9.7 68 3.0 SSW 19 44 10 24 1017.3 1017.3 0.4
18/11:00pm 15.8 12.7 8.7 62 3.6 S 15 20 8 11 1017.3 1017.3 0.4
18/10:30pm 15.0 11.9 7.3 60 3.8 SSE 13 19 7 10 1017.4 1017.4 0.4
18/10:00pm 15.0 11.3 7.8 62 3.6 S 17 22 9 12 1017.5 1017.5 0.4
18/09:30pm 15.0 9.6 8.0 63 3.5 S 26 35 14 19 1017.3 1017.3 0.4
18/09:00pm 15.0 11.0 8.2 64 3.4 SSE 19 28 10 15 1016.9 1016.9 0.4
18/08:30pm 16.4 11.6 5.6 49 5.2 S 20 30 11 16 1016.6 1016.6 0.0
18/08:00pm 16.9 11.0 6.0 48 5.3 S 26 37 14 20 1016.4 1016.4 0.0
18/07:30pm 17.5 11.5 5.5 45 5.8 SSW 26 35 14 19 1016.0 1016.0 0.0
18/07:00pm 17.9 12.3 5.3 43 6.1 SSW 24 35 13 19 1015.6 1015.6 0.0
18/06:30pm 18.5 11.9 5.9 43 6.2 SSW 30 37 16 20 1015.6 1015.6 0.0
18/06:00pm 19.0 12.4 6.0 42 6.4 SSW 30 39 16 21 1015.5 1015.5 0.0
18/05:30pm 19.1 12.5 5.9 42 6.5 SSW 30 43 16 23 1015.6 1015.6 0.0
18/05:00pm 19.2 12.5 5.5 40 6.7 SSW 30 43 16 23 1015.6 1015.6 0.0
18/04:30pm 19.4 12.6 6.9 44 6.3 SSW 32 41 17 22 1015.8 1015.8 0.0
18/04:19pm 19.3 12.3 6.7 44 6.3 SW 33 52 18 28 1015.9 1015.9 0.0
18/04:00pm 19.1 13.2 7.5 47 5.9 SW 28 37 15 20 1016.1 1016.1 0.0
18/03:30pm 17.4 11.5 9.1 58 4.3 SW 30 52 16 28 1016.3 1016.3 0.0
18/03:00pm 17.6 10.3 7.0 50 5.3 SSW 35 48 19 26 1016.4 1016.4 0.0
18/02:30pm 19.1 13.0 8.2 49 5.6 SSW 30 46 16 25 1016.4 1016.4 0.0
18/02:00pm 18.9 13.3 7.2 46 5.9 SW 26 37 14 20 1016.4 1016.4 0.0
18/01:30pm 19.7 13.6 6.8 43 6.5 SSW 28 37 15 20 1016.2 1016.2 0.0
18/01:00pm 19.2 12.6 7.9 48 5.8 SSW 32 41 17 22 1016.2 1016.2 0.0
18/12:30pm 18.2 11.9 7.3 49 5.5 SW 30 39 16 21 1016.3 1016.3 0.0
18/12:00pm 18.6 12.8 7.8 49 5.5 SW 28 35 15 19 1016.6 1016.6 0.0
18/11:30am 18.2 12.3 7.3 49 5.5 SW 28 41 15 22 1016.5 1016.5 0.0
18/11:00am 17.5 10.7 6.8 49 5.3 SW 32 41 17 22 1016.4 1016.4 0.0
18/10:30am 17.5 11.2 7.3 51 5.1 SW 30 41 16 22 1016.4 1016.4 0.0
18/10:00am 17.4 11.2 7.9 53 4.8 SW 30 39 16 21 1016.1 1016.1 0.0
18/09:30am 17.3 10.6 5.8 46 5.6 SW 30 37 16 20 1016.0 1016.0 0.0
18/09:00am 17.4 11.0 6.9 50 5.2 SW 30 41 16 22 1015.7 1015.7 0.0
18/08:30am 16.9 10.8 6.5 50 5.1 SW 28 35 15 19 1015.5 1015.5 0.0
18/08:00am 16.9 10.5 6.8 51 5.0 SW 30 39 16 21 1015.2 1015.2 0.0
18/07:30am 16.8 11.0 6.1 49 5.2 SW 26 39 14 21 1014.8 1014.8 0.0
18/07:00am 17.0 11.0 7.2 52 4.9 SW 28 39 15 21 1014.3 1014.3 0.0
18/06:30am 16.9 10.1 7.0 52 4.9 SW 32 46 17 25 1014.0 1014.0 0.0
18/06:00am 17.2 11.0 6.2 48 5.4 SW 28 37 15 20 1013.7 1013.7 0.0
18/05:30am 17.0 10.3 7.2 52 4.9 SW 32 41 17 22 1013.5 1013.5 0.0
18/05:00am 17.2 10.4 6.7 50 5.2 SW 32 43 17 23 1013.4 1013.4 0.0
18/04:30am 17.2 11.2 6.9 50 5.1 SW 28 41 15 22 1013.6 1013.6 0.0
18/04:00am 17.2 11.3 9.1 59 4.2 SW 30 37 16 20 1013.7 1013.7 0.0
18/03:30am 17.2 11.6 8.9 58 4.3 SW 28 37 15 20 1013.6 1013.6 0.0
18/03:00am 17.6 12.6 8.0 53 4.9 SW 24 32 13 17 1013.6 1013.6 0.0
18/02:30am 17.8 12.8 8.0 52 5.0 SW 24 33 13 18 1013.8 1013.8 0.0
18/02:00am 17.7 13.1 8.1 53 4.9 SW 22 32 12 17 1014.1 1014.1 0.0
18/01:30am 17.8 13.9 8.5 54 4.8 SW 19 26 10 14 1014.3 1014.3 0.0
18/01:00am 18.0 12.6 7.8 51 5.2 SW 26 33 14 18 1014.7 1014.7 0.0
18/12:30am 18.2 12.6 8.7 54 4.9 SW 28 35 15 19 1014.6 1014.6 0.0
18/12:00am 18.3 13.9 10.5 60 4.2 SSW 24 37 13 20 1014.4 1014.4 0.0
 
Date/Time
CDT
Temp
°C
App
Temp
°C
Dew
Point
°C
Rel
Hum
%
Delta-T
°C
Wind Press
QNH
hPa
Press
MSL
hPa
Rain since
9am
mm
Dir  Spd
km/h
Gust
km/h
Spd
kts
Gust
kts
17/11:30pm 18.9 12.5 7.0 46 6.0 SW 30 43 16 23 1014.6 1014.6 0.0
17/11:00pm 18.8 13.2 8.6 51 5.3 SSW 28 37 15 20 1014.8 1014.8 0.0
17/10:30pm 18.7 13.6 10.5 59 4.4 SSW 28 39 15 21 1014.9 1014.9 0.0
17/10:00pm 18.8 13.6 11.5 62 4.0 SSW 30 39 16 21 1014.8 1014.8 0.0
17/09:30pm 19.1 13.4 13.1 68 3.4 SW 35 46 19 25 1014.5 1014.5 0.0
17/09:00pm 19.5 12.1 10.0 54 5.1 WSW 39 48 21 26 1014.3 1014.3 0.0
17/08:30pm 19.7 14.0 11.7 60 4.4 WSW 33 41 18 22 1014.0 1014.0 0.0
17/08:00pm 19.7 14.1 12.2 62 4.2 WSW 33 43 18 23 1013.7 1013.7 0.0
17/07:30pm 20.2 16.9 14.0 67 3.6 SW 24 33 13 18 1013.4 1013.4 0.0
17/07:00pm 20.6 16.2 14.2 66 3.7 SW 30 39 16 21 1013.2 1013.2 0.0
17/06:30pm 21.2 16.1 13.6 62 4.4 WSW 33 44 18 24 1013.0 1013.0 0.0
17/06:00pm 20.9 16.3 13.6 63 4.2 WSW 30 39 16 21 1013.0 1013.0 0.0
17/05:30pm 21.3 15.3 12.0 55 5.2 WSW 35 43 19 23 1012.9 1012.9 0.0
17/05:00pm 21.2 15.7 12.3 57 5.0 WSW 33 41 18 22 1012.8 1012.8 0.0
17/04:30pm 21.4 17.3 13.8 62 4.4 SW 28 35 15 19 1012.8 1012.8 0.0
17/04:00pm 21.3 17.0 13.1 59 4.7 WSW 28 37 15 20 1012.8 1012.8 0.0
17/03:30pm 21.7 20.0 13.6 60 4.7 W 15 28 8 15 1012.9 1012.9 0.0
17/03:00pm 21.4 19.1 13.0 58 4.8 WSW 17 32 9 17 1013.2 1013.2 0.0
17/02:30pm 20.9 18.0 13.0 60 4.5 W 20 28 11 15 1013.6 1013.6 0.0
17/02:00pm 20.6 17.8 12.6 60 4.5 W 19 26 10 14 1013.8 1013.8 0.0
17/01:30pm 19.4 16.8 13.8 70 3.2 WSW 20 26 11 14 1013.9 1013.9 0.0
17/01:00pm 18.4 14.6 14.6 78 2.2 WSW 28 35 15 19 1014.2 1014.2 0.0
17/12:30pm 18.0 13.7 15.4 85 1.5 WSW 32 44 17 24 1014.4 1014.4 0.0
17/12:00pm 19.6 16.4 11.8 60 4.3 SW 20 30 11 16 1014.5 1014.5 0.0
17/11:30am 18.5 16.8 12.6 68 3.3 SW 13 22 7 12 1014.5 1014.5 0.0
17/11:00am 19.0 14.6 11.7 62 4.0 WSW 26 33 14 18 1014.6 1014.6 0.0
17/10:30am 19.6 15.9 10.1 54 5.1 WSW 20 28 11 15 1014.1 1014.1 0.0
17/10:00am 19.3 14.3 9.7 53 5.1 WSW 26 33 14 18 1014.1 1014.1 0.0
17/09:30am 19.0 16.1 11.1 60 4.3 WSW 17 24 9 13 1013.9 1013.9 0.0
17/09:00am 18.9 15.6 10.8 59 4.4 W 19 26 10 14 1013.6 1013.6 0.0
17/08:30am 18.8 15.8 10.6 59 4.4 WSW 17 26 9 14 1013.2 1013.2 0.0
17/08:00am 18.7 15.9 10.1 57 4.6 SW 15 22 8 12 1012.8 1012.8 0.0
17/07:30am 18.6 15.9 9.0 53 5.0 SW 13 17 7 9 1012.6 1012.6 0.0
17/07:00am 18.1 15.4 8.9 55 4.8 SSW 13 17 7 9 1012.4 1012.4 0.0
17/06:30am 17.6 14.0 8.2 54 4.8 SW 17 22 9 12 1012.2 1012.2 0.0
17/06:00am 17.7 13.7 8.1 53 4.9 SW 19 28 10 15 1012.0 1012.0 0.0
17/05:30am 17.8 13.8 8.9 56 4.6 SW 20 28 11 15 1011.8 1011.8 0.0

Other Formats:

Comma delimited format used in spreadsheet applications
http://www.bom.gov.au/fwo/IDS60801/IDS60801.94672.axf

JavaScript Object Notation format (JSON) in row-major order
http://www.bom.gov.au/fwo/IDS60801/IDS60801.94672.json